createdAt,value
2023-02-12T18:04:44.539Z,72.00
2023-02-12T18:07:11.580Z,65.57
2023-02-12T18:09:39.758Z,59.97
2023-02-12T18:12:07.877Z,60.90
2023-02-12T18:14:35.127Z,78.20
2023-02-12T18:17:02.081Z,69.07
2023-02-12T18:19:29.327Z,53.42
2023-02-12T18:21:56.368Z,49.97
2023-02-12T18:24:23.416Z,46.40
2023-02-12T18:26:52.662Z,53.13
2023-02-12T18:29:19.767Z,62.35
2023-02-12T18:31:46.987Z,62.60
2023-02-12T18:34:14.113Z,53.80
2023-02-12T18:36:41.105Z,44.83
2023-02-12T18:39:08.151Z,46.25
2023-02-12T18:41:35.950Z,49.38
2023-02-12T18:44:03.485Z,50.05
2023-02-12T18:46:32.168Z,54.08
2023-02-12T18:49:00.649Z,55.08
2023-02-12T18:51:29.836Z,58.58
2023-02-12T18:54:03.978Z,59.70
2023-02-12T18:56:34.430Z,58.72
2023-02-12T18:59:05.524Z,65.60
2023-02-12T19:01:33.653Z,71.68
2023-02-12T19:04:02.936Z,71.78
2023-02-12T19:06:32.491Z,67.47
2023-02-12T19:09:02.369Z,69.18
2023-02-12T19:11:30.572Z,71.10
2023-02-12T19:13:58.031Z,64.82
2023-02-12T19:16:25.610Z,69.15
2023-02-12T19:18:58.525Z,58.50
2023-02-12T19:21:28.502Z,54.95
2023-02-12T19:24:00.573Z,53.42
2023-02-12T19:26:29.958Z,56.35
2023-02-12T19:28:57.935Z,53.90
2023-02-12T19:31:45.867Z,53.17
2023-02-12T19:34:21.912Z,55.88
2023-02-12T19:36:49.967Z,56.85
2023-02-12T19:39:23.180Z,54.88
2023-02-12T19:41:51.063Z,53.88
2023-02-12T19:44:23.368Z,48.00
2023-02-12T19:46:51.387Z,41.63
2023-02-12T19:49:21.511Z,43.17
2023-02-12T19:51:49.182Z,42.88
2023-02-12T19:54:18.006Z,38.13
2023-02-12T19:56:46.073Z,41.55
2023-02-12T19:59:17.782Z,45.70
2023-02-12T20:01:46.530Z,37.03
2023-02-12T20:04:17.047Z,37.60
2023-02-12T20:06:46.036Z,43.55
2023-02-12T20:09:14.188Z,34.35
2023-02-12T20:11:41.672Z,64.22
2023-02-12T20:14:11.784Z,59.88
2023-02-12T20:16:41.760Z,40.42
2023-02-12T20:19:24.819Z,40.92
2023-02-12T20:21:56.787Z,34.72
2023-02-12T20:24:31.612Z,46.95
2023-02-12T20:30:40.079Z,36.30
2023-02-12T20:33:07.149Z,39.35
2023-02-12T20:35:36.343Z,35.72
2023-02-12T20:38:07.698Z,34.05
2023-02-12T20:40:34.834Z,38.38
2023-02-12T20:43:06.088Z,33.67
2023-02-12T20:45:34.764Z,34.25
2023-02-12T20:48:01.763Z,36.50
2023-02-12T20:50:28.806Z,33.95
2023-02-12T20:52:56.094Z,32.00
2023-02-12T20:55:23.153Z,32.08
2023-02-12T20:57:50.255Z,36.38
2023-02-12T21:00:17.811Z,36.28
2023-02-12T21:02:44.808Z,36.95
2023-02-12T21:05:11.861Z,41.92
2023-02-12T21:07:38.904Z,40.20
2023-02-12T21:10:06.608Z,36.33
2023-02-12T21:12:33.654Z,36.42
2023-02-12T21:15:00.602Z,35.83
2023-02-12T21:17:29.128Z,29.98
2023-02-12T21:19:56.173Z,36.63
2023-02-12T21:22:23.263Z,34.42
2023-02-12T21:24:50.318Z,31.30
2023-02-12T21:27:17.365Z,33.20
2023-02-12T21:29:44.308Z,33.75
2023-02-12T21:32:11.443Z,35.47
2023-02-12T21:34:38.714Z,33.38
2023-02-12T21:37:05.751Z,29.33
2023-02-12T21:39:32.955Z,34.05
2023-02-12T21:42:03.164Z,28.50
2023-02-12T21:44:32.627Z,29.88
2023-02-12T21:46:59.621Z,30.55
2023-02-12T21:49:28.472Z,41.15
2023-02-12T21:51:59.908Z,52.05
2023-02-12T21:54:27.265Z,48.20
2023-02-12T21:56:54.672Z,70.82
2023-02-12T21:59:23.024Z,46.80
2023-02-12T22:01:52.034Z,39.42
2023-02-12T22:04:19.764Z,34.97
2023-02-12T22:06:49.000Z,28.98
2023-02-12T22:09:18.090Z,29.00
2023-02-12T22:11:45.190Z,30.65
2023-02-12T22:14:17.507Z,29.55
2023-02-12T22:16:45.521Z,23.27
2023-02-12T22:19:12.672Z,29.40
2023-02-12T22:21:41.776Z,28.10
2023-02-12T22:24:11.730Z,29.80
2023-02-12T22:26:38.834Z,25.02
2023-02-12T22:29:08.444Z,30.38
2023-02-12T22:31:37.569Z,25.63
2023-02-12T22:34:16.910Z,25.88
2023-02-12T22:36:44.646Z,35.05
2023-02-12T22:39:13.227Z,33.78
2023-02-12T22:41:42.061Z,31.48
2023-02-12T22:44:11.106Z,27.13
2023-02-12T22:46:38.140Z,27.25
2023-02-12T22:49:05.267Z,26.60
2023-02-12T22:51:34.630Z,27.52
2023-02-12T22:54:01.820Z,26.35
2023-02-12T22:56:29.133Z,27.95
2023-02-12T22:58:58.135Z,26.52
2023-02-12T23:01:26.045Z,23.15
2023-02-12T23:03:53.525Z,25.13
2023-02-12T23:06:23.526Z,26.88
2023-02-12T23:08:56.402Z,28.85
2023-02-12T23:11:24.725Z,26.65
2023-02-12T23:13:52.787Z,25.45
2023-02-12T23:16:20.963Z,25.27
2023-02-12T23:18:48.420Z,31.73
2023-02-12T23:21:15.420Z,26.33
2023-02-12T23:23:42.482Z,35.92
2023-02-12T23:26:09.529Z,31.30
2023-02-12T23:28:38.208Z,37.70
2023-02-12T23:31:05.403Z,42.35
2023-02-12T23:33:32.420Z,41.30
2023-02-12T23:35:59.673Z,34.92
2023-02-12T23:38:26.618Z,26.58
2023-02-12T23:40:53.723Z,27.00
2023-02-12T23:43:21.374Z,24.80
2023-02-12T23:45:48.508Z,28.60
2023-02-12T23:48:15.675Z,30.85
2023-02-12T23:50:42.882Z,26.63
2023-02-12T23:53:11.721Z,28.38
2023-02-12T23:55:39.991Z,23.75
2023-02-12T23:58:07.705Z,24.27
